createdAt,value
2023-03-25T00:01:35.453Z,100183.38
2023-03-25T00:04:04.310Z,100194.34
2023-03-25T00:06:34.282Z,100193.75
2023-03-25T00:09:02.187Z,100212.06
2023-03-25T00:11:29.065Z,100199.47
2023-03-25T00:13:55.432Z,100205.88
2023-03-25T00:16:21.890Z,100208.28
2023-03-25T00:18:48.299Z,100201.47
2023-03-25T00:21:14.735Z,100197.06
2023-03-25T00:23:41.707Z,100201.28
2023-03-25T00:26:08.249Z,100202.25
2023-03-25T00:28:36.913Z,100194.69
2023-03-25T00:31:06.732Z,100200.88
2023-03-25T00:33:35.239Z,100187.28
2023-03-25T00:36:05.578Z,100195.88
2023-03-25T00:38:35.238Z,100195.06
2023-03-25T00:41:25.787Z,100202.22
2023-03-25T00:43:54.171Z,100201.44
2023-03-25T00:46:22.839Z,100204.03
2023-03-25T00:48:50.734Z,100206.59
2023-03-25T00:51:21.268Z,100201.44
2023-03-25T00:53:52.358Z,100196.25
2023-03-25T00:56:19.715Z,100206.00
2023-03-25T00:58:46.154Z,100208.22
2023-03-25T01:01:16.340Z,100211.00
2023-03-25T01:03:44.272Z,100206.00
2023-03-25T01:06:16.450Z,100197.22
2023-03-25T01:08:44.296Z,100191.63
2023-03-25T01:11:20.932Z,100196.00
2023-03-25T01:13:47.713Z,100196.19
2023-03-25T01:16:14.193Z,100191.81
2023-03-25T01:18:41.228Z,100196.81
2023-03-25T01:21:08.440Z,100184.63
2023-03-25T01:23:35.269Z,100199.22
2023-03-25T01:26:01.700Z,100189.63
2023-03-25T01:28:28.772Z,100194.22
2023-03-25T01:31:03.125Z,100196.38
2023-03-25T01:33:30.006Z,100188.44
2023-03-25T01:35:56.650Z,100196.19
2023-03-25T01:38:23.501Z,100188.97
2023-03-25T01:40:52.075Z,100185.97
2023-03-25T01:43:18.497Z,100193.28
2023-03-25T01:45:46.235Z,100197.06
2023-03-25T01:48:18.883Z,100179.69
2023-03-25T01:50:52.059Z,100169.09
2023-03-25T01:53:18.992Z,100184.81
2023-03-25T01:55:47.678Z,100184.41
2023-03-25T01:58:17.842Z,100184.56
2023-03-25T02:00:45.866Z,100172.00
2023-03-25T02:03:13.832Z,100180.75
2023-03-25T02:06:04.029Z,100184.53
2023-03-25T02:08:38.639Z,100184.47
2023-03-25T02:11:09.869Z,100187.59
2023-03-25T02:13:41.706Z,100190.38
2023-03-25T02:16:40.255Z,100186.97
2023-03-25T02:19:32.952Z,100180.22
2023-03-25T02:22:20.684Z,100185.38
2023-03-25T02:25:16.096Z,100174.19
2023-03-25T02:28:00.362Z,100182.16
2023-03-25T02:31:10.589Z,100171.00
2023-03-25T02:34:04.385Z,100174.97
2023-03-25T02:36:30.772Z,100174.28
2023-03-25T02:39:07.299Z,100185.22
2023-03-25T02:41:42.818Z,100181.22
2023-03-25T02:44:27.694Z,100180.41
2023-03-25T02:46:57.377Z,100174.78
2023-03-25T02:49:32.274Z,100177.56
2023-03-25T02:52:05.863Z,100178.75
2023-03-25T02:54:34.157Z,100176.16
2023-03-25T02:57:01.383Z,100173.56
2023-03-25T02:59:33.112Z,100176.16
2023-03-25T03:02:03.629Z,100175.53
2023-03-25T03:04:30.160Z,100172.94
2023-03-25T03:06:57.760Z,100163.38
2023-03-25T03:09:46.705Z,100157.41
2023-03-25T03:12:21.229Z,100148.47
2023-03-25T03:15:00.692Z,100153.47
2023-03-25T03:17:33.458Z,100151.25
2023-03-25T03:20:25.366Z,100151.59
2023-03-25T03:23:06.355Z,100145.22
2023-03-25T03:25:51.511Z,100149.56
2023-03-25T03:28:56.127Z,100152.97
2023-03-25T03:31:48.341Z,100155.31
2023-03-25T03:34:27.495Z,100148.72
2023-03-25T03:36:57.709Z,100155.84
2023-03-25T03:39:36.742Z,100151.47
2023-03-25T03:42:26.166Z,100149.06
2023-03-25T03:44:56.816Z,100142.91
2023-03-25T03:47:29.280Z,100154.06
2023-03-25T03:50:21.191Z,100143.09
2023-03-25T03:52:57.332Z,100150.03
2023-03-25T03:55:29.566Z,100137.94
2023-03-25T03:58:07.789Z,100146.47
2023-03-25T04:01:03.085Z,100141.13
2023-03-25T04:03:55.358Z,100150.69
2023-03-25T04:06:27.189Z,100143.28
2023-03-25T04:08:59.225Z,100137.50
2023-03-25T04:11:44.718Z,100137.50
2023-03-25T04:14:13.249Z,100144.44
2023-03-25T04:16:39.646Z,100130.91
2023-03-25T04:19:07.128Z,100127.69
2023-03-25T04:21:33.856Z,100130.28
2023-03-25T04:24:01.567Z,100120.31
2023-03-25T04:26:33.607Z,100117.91
2023-03-25T04:29:01.816Z,100136.97
2023-03-25T04:31:31.021Z,100129.38
2023-03-25T04:33:59.181Z,100139.31
2023-03-25T04:36:28.712Z,100142.06
2023-03-25T04:38:55.886Z,100142.44
2023-03-25T04:41:23.361Z,100140.03
2023-03-25T04:43:49.812Z,100152.53
2023-03-25T06:15:36.064Z,100185.81
2023-03-25T06:18:02.563Z,100190.25
2023-03-25T06:20:29.040Z,100186.06
2023-03-25T06:22:55.680Z,100184.72
2023-03-25T06:25:22.197Z,100187.19
2023-03-25T06:27:49.988Z,100184.69
2023-03-25T06:30:20.745Z,100186.72
2023-03-25T06:32:50.830Z,100184.84
2023-03-25T06:35:20.014Z,100172.78
2023-03-25T06:37:48.840Z,100183.50
2023-03-25T06:40:16.038Z,100192.75
2023-03-25T06:42:42.704Z,100195.78
2023-03-25T06:45:10.011Z,100199.06
2023-03-25T06:47:36.514Z,100202.84
2023-03-25T06:50:03.021Z,100204.47
2023-03-25T06:52:29.502Z,100201.38
2023-03-25T06:54:56.009Z,100217.44
2023-03-25T06:57:22.480Z,100210.38
2023-03-25T06:59:49.618Z,100215.91
2023-03-25T07:02:16.046Z,100208.16
2023-03-25T07:04:42.464Z,100206.38
2023-03-25T07:07:09.170Z,100214.94
2023-03-25T07:09:35.952Z,100213.16
2023-03-25T07:12:02.755Z,100207.44
2023-03-25T07:14:29.171Z,100222.59
2023-03-25T07:16:56.380Z,100212.88
2023-03-25T07:19:23.148Z,100222.41
2023-03-25T07:21:49.580Z,100219.03
2023-03-25T07:24:16.004Z,100218.03
2023-03-25T07:26:42.371Z,100222.84
2023-03-25T07:29:08.730Z,100222.84
2023-03-25T07:31:35.443Z,100229.28
2023-03-25T07:34:02.861Z,100227.94
2023-03-25T07:36:29.364Z,100234.38
2023-03-25T07:38:57.126Z,100226.16
2023-03-25T07:41:23.817Z,100228.16
2023-03-25T07:43:50.232Z,100226.81
2023-03-25T07:46:16.712Z,100234.03
2023-03-25T07:48:43.369Z,100227.22
2023-03-25T07:51:10.039Z,100231.25
2023-03-25T07:53:39.003Z,100234.09
2023-03-25T07:56:06.664Z,100226.94
2023-03-25T07:58:33.118Z,100230.00
2023-03-25T08:00:59.507Z,100238.69
2023-03-25T08:03:27.893Z,100227.88
2023-03-25T08:05:54.655Z,100238.22
2023-03-25T08:08:21.256Z,100227.53
2023-03-25T08:10:48.138Z,100229.16
2023-03-25T08:13:14.733Z,100242.88
2023-03-25T08:15:41.210Z,100239.69
2023-03-25T08:18:07.899Z,100247.25
2023-03-25T08:20:35.055Z,100248.66
2023-03-25T08:23:02.851Z,100251.25
2023-03-25T08:25:30.546Z,100249.66
2023-03-25T08:27:56.964Z,100259.44
2023-03-25T08:30:23.539Z,100255.09
2023-03-25T08:32:54.422Z,100247.50
2023-03-25T08:35:23.645Z,100250.28
2023-03-25T08:37:50.616Z,100262.03
2023-03-25T08:40:17.225Z,100263.13
2023-03-25T08:42:43.811Z,100262.38
2023-03-25T08:45:11.180Z,100253.25
2023-03-25T08:47:37.637Z,100253.25
2023-03-25T08:50:04.403Z,100255.09
2023-03-25T08:52:30.831Z,100254.69
2023-03-25T08:54:57.184Z,100252.50
2023-03-25T08:57:23.561Z,100255.09
2023-03-25T08:59:50.385Z,100269.03
2023-03-25T09:02:16.786Z,100251.34
2023-03-25T09:04:43.182Z,100244.44
2023-03-25T09:07:12.645Z,100253.28
2023-03-25T09:09:40.908Z,100263.22
2023-03-25T09:12:08.533Z,100255.22
2023-03-25T09:14:35.113Z,100261.81
2023-03-25T09:17:01.704Z,100249.03
2023-03-25T09:19:28.121Z,100246.47
2023-03-25T09:21:54.547Z,100249.66
2023-03-25T09:24:22.661Z,100260.25
2023-03-25T09:26:49.291Z,100257.25
2023-03-25T09:29:15.707Z,100262.63
2023-03-25T09:31:42.589Z,100265.78
2023-03-25T09:34:09.174Z,100274.63
2023-03-25T09:36:35.615Z,100272.34
2023-03-25T09:39:02.107Z,100267.66
2023-03-25T09:41:34.378Z,100272.06
2023-03-25T09:44:13.822Z,100264.09
2023-03-25T09:46:40.774Z,100268.06
2023-03-25T09:49:37.880Z,100282.19
2023-03-25T09:52:06.271Z,100271.97
2023-03-25T09:54:38.654Z,100275.28
2023-03-25T09:57:09.212Z,100261.69
2023-03-25T09:59:49.514Z,100267.03
2023-03-25T10:02:45.206Z,100276.16
2023-03-25T10:05:33.087Z,100279.16
2023-03-25T10:08:17.705Z,100283.75
2023-03-25T10:11:10.498Z,100282.44
2023-03-25T10:13:49.043Z,100273.97
2023-03-25T10:17:02.964Z,100291.25
2023-03-25T10:19:38.577Z,100285.50
2023-03-25T10:22:23.482Z,100295.06
2023-03-25T10:25:00.993Z,100288.81
2023-03-25T10:27:37.191Z,100287.81
2023-03-25T10:30:09.628Z,100290.44
2023-03-25T10:32:49.534Z,100292.22
2023-03-25T10:35:21.267Z,100290.81
2023-03-25T10:37:51.732Z,100282.63
2023-03-25T10:40:33.597Z,100286.81
2023-03-25T10:43:16.375Z,100285.84
2023-03-25T10:45:45.645Z,100296.47
2023-03-25T10:48:29.165Z,100292.28
2023-03-25T10:51:09.788Z,100301.31
2023-03-25T10:53:36.818Z,100292.88
2023-03-25T10:56:13.210Z,100297.69
2023-03-25T10:58:41.417Z,100303.72
2023-03-25T11:01:19.896Z,100306.50
2023-03-25T11:03:51.720Z,100314.69
2023-03-25T11:06:31.688Z,100305.88
2023-03-25T11:09:13.772Z,100324.50
2023-03-25T11:11:42.136Z,100318.13
2023-03-25T11:14:09.316Z,100303.31
2023-03-25T11:17:11.702Z,100296.69
2023-03-25T11:19:42.335Z,100323.72
2023-03-25T11:22:29.354Z,100316.72
2023-03-25T11:25:07.426Z,100322.09
2023-03-25T11:27:44.441Z,100326.72
2023-03-25T11:30:20.284Z,100319.13
2023-03-25T11:33:06.418Z,100325.31
2023-03-25T11:35:42.456Z,100317.53
2023-03-25T11:38:22.063Z,100311.50
2023-03-25T11:40:58.910Z,100317.94
2023-03-25T11:43:30.480Z,100323.91
2023-03-25T11:45:57.276Z,100314.25
2023-03-25T11:48:29.681Z,100311.41
2023-03-25T11:50:59.825Z,100314.78
2023-03-25T11:53:28.054Z,100310.91
2023-03-25T11:55:59.400Z,100306.06
2023-03-25T11:58:31.755Z,100313.78
2023-03-25T12:01:04.293Z,100311.53
2023-03-25T12:03:33.524Z,100317.81
2023-03-25T12:06:12.109Z,100312.63
2023-03-25T12:08:48.120Z,100305.84
2023-03-25T12:11:36.029Z,100308.28
2023-03-25T12:14:28.395Z,100318.72
2023-03-25T12:17:11.712Z,100303.44
2023-03-25T12:19:59.923Z,100310.28
2023-03-25T12:22:42.471Z,100318.88
2023-03-25T12:25:14.830Z,100310.97
2023-03-25T12:27:56.413Z,100291.19
2023-03-25T12:30:44.321Z,100304.13
2023-03-25T12:33:35.606Z,100301.03
2023-03-25T12:36:20.270Z,100292.44
2023-03-25T12:39:18.486Z,100284.09
2023-03-25T12:42:16.636Z,100296.88
2023-03-25T12:45:25.844Z,100285.22
2023-03-25T12:48:19.361Z,100315.78
2023-03-25T12:51:06.884Z,100301.91
2023-03-25T12:53:58.092Z,100314.28
2023-03-25T12:56:58.771Z,100305.34
2023-03-25T13:00:01.221Z,100298.22
2023-03-25T13:02:46.399Z,100301.88
2023-03-25T13:05:24.871Z,100298.94
2023-03-25T13:07:59.956Z,100305.50
2023-03-25T13:10:41.234Z,100316.34
2023-03-25T13:13:14.963Z,100311.31
2023-03-25T13:15:48.061Z,100288.94
2023-03-25T13:18:22.631Z,100290.84
2023-03-25T13:21:08.985Z,100313.19
2023-03-25T13:23:42.349Z,100312.34
2023-03-25T13:26:11.826Z,100315.59
2023-03-25T13:28:49.372Z,100323.81
2023-03-25T13:31:27.484Z,100308.75
2023-03-25T13:34:04.783Z,100325.25
2023-03-25T13:36:37.721Z,100330.47
2023-03-25T13:39:17.630Z,100325.19
2023-03-25T13:41:51.281Z,100332.91
2023-03-25T13:44:26.410Z,100311.25
2023-03-25T13:46:58.696Z,100321.72
2023-03-25T13:49:57.106Z,100334.06
2023-03-25T13:52:29.918Z,100327.53
2023-03-25T13:55:03.884Z,100344.19
2023-03-25T13:58:09.102Z,100336.47
2023-03-25T14:00:58.045Z,100332.38
2023-03-25T14:04:00.988Z,100333.09
2023-03-25T14:07:10.002Z,100389.03
2023-03-25T14:09:42.832Z,100396.72
2023-03-25T14:12:16.048Z,100391.75
2023-03-25T14:14:58.834Z,100408.78
2023-03-25T14:17:28.605Z,100406.88
2023-03-25T14:19:58.624Z,100421.75
2023-03-25T14:22:31.812Z,100433.16
2023-03-25T14:24:59.881Z,100421.38
2023-03-25T14:27:30.182Z,100407.22
2023-03-25T14:30:28.294Z,100401.84
2023-03-25T14:32:58.589Z,100399.72
2023-03-25T14:35:34.547Z,100404.56
2023-03-25T14:38:08.647Z,100404.75
2023-03-25T14:40:58.848Z,100402.97
2023-03-25T14:43:46.121Z,100400.56
2023-03-25T14:46:19.040Z,100397.56
2023-03-25T14:48:45.917Z,100410.59
2023-03-25T14:51:15.389Z,100400.97
2023-03-25T14:53:49.234Z,100389.78
2023-03-25T14:56:19.288Z,100382.13
2023-03-25T14:58:53.237Z,100403.34
2023-03-25T15:01:21.808Z,100392.38
2023-03-25T15:03:49.621Z,100406.59
2023-03-25T15:06:28.761Z,100396.75
2023-03-25T15:09:00.852Z,100417.34
2023-03-25T15:11:33.493Z,100402.13
2023-03-25T15:14:05.952Z,100398.06
2023-03-25T15:16:35.784Z,100400.44
2023-03-25T15:19:12.095Z,100416.81
2023-03-25T15:21:56.759Z,100509.53
2023-03-25T15:24:33.406Z,100523.88
2023-03-25T15:27:14.887Z,100510.88
2023-03-25T15:29:55.470Z,100501.69
2023-03-25T15:32:53.021Z,100514.53
2023-03-25T15:35:31.622Z,100520.53
2023-03-25T15:38:19.112Z,100516.34
2023-03-25T15:41:04.331Z,100526.25
2023-03-25T15:43:57.825Z,100525.91
2023-03-25T15:46:44.558Z,100518.81
2023-03-25T15:49:58.406Z,100529.41
2023-03-25T15:52:53.917Z,100524.72
2023-03-25T15:55:53.534Z,100536.75
2023-03-25T15:58:32.318Z,100539.97
2023-03-25T16:01:12.360Z,100534.09
2023-03-25T16:03:39.334Z,100530.47
2023-03-25T16:06:07.938Z,100533.19
2023-03-25T16:08:39.761Z,100518.91
2023-03-25T16:11:25.937Z,100528.28
2023-03-25T16:14:16.997Z,100537.84
2023-03-25T16:16:51.743Z,100543.34
2023-03-25T16:19:22.890Z,100551.13
2023-03-25T16:21:51.948Z,100546.91
2023-03-25T16:24:23.665Z,100539.31
2023-03-25T16:26:51.153Z,100570.19
2023-03-25T16:29:23.159Z,100576.19
2023-03-25T16:32:03.854Z,100576.19
2023-03-25T16:34:37.698Z,100574.31
2023-03-25T16:37:05.962Z,100588.09
2023-03-25T16:39:35.222Z,100563.69
2023-03-25T16:42:07.890Z,100559.53
2023-03-25T16:44:34.863Z,100556.59
2023-03-25T16:47:02.419Z,100560.88
2023-03-25T16:49:40.317Z,100550.19
2023-03-25T16:52:12.087Z,100570.09
2023-03-25T16:54:58.785Z,100582.22
2023-03-25T16:57:28.336Z,100578.19
2023-03-25T16:59:56.073Z,100585.16
2023-03-25T17:02:27.224Z,100590.97
2023-03-25T17:04:57.395Z,100585.28
2023-03-25T17:07:27.473Z,100590.91
2023-03-25T17:10:00.663Z,100592.88
2023-03-25T17:12:29.158Z,100605.19
2023-03-25T17:15:04.543Z,100613.91
2023-03-25T17:17:47.047Z,100614.72
2023-03-25T17:20:25.161Z,100605.19
2023-03-25T17:23:01.369Z,100614.72
2023-03-25T17:25:32.230Z,100611.84
2023-03-25T17:28:24.979Z,100619.47
2023-03-25T17:30:51.569Z,100623.38
2023-03-25T17:33:19.925Z,100625.31
2023-03-25T17:35:54.024Z,100625.78
2023-03-25T17:38:38.218Z,100632.41
2023-03-25T17:41:07.491Z,100625.44
2023-03-25T17:43:54.706Z,100633.03
2023-03-25T17:46:24.203Z,100628.50
2023-03-25T17:48:53.416Z,100634.00
2023-03-25T17:51:21.336Z,100646.38
2023-03-25T17:53:48.480Z,100648.63
2023-03-25T17:56:18.697Z,100657.22
2023-03-25T17:58:45.328Z,100667.91
2023-03-25T18:01:12.872Z,100659.53
2023-03-25T18:03:39.788Z,100658.88
2023-03-25T18:06:06.624Z,100660.19
2023-03-25T18:08:33.395Z,100662.50
2023-03-25T18:10:59.801Z,100667.19
2023-03-25T18:13:27.179Z,100673.50
2023-03-25T18:15:54.540Z,100673.03
2023-03-25T18:18:26.909Z,100690.34
2023-03-25T18:20:56.148Z,100694.88
2023-03-25T18:23:23.860Z,100697.63
2023-03-25T18:25:51.015Z,100704.75
2023-03-25T18:28:17.833Z,100711.53
2023-03-25T18:30:50.919Z,100710.56
2023-03-25T18:33:18.030Z,100709.09
2023-03-25T18:35:44.940Z,100700.72
2023-03-25T18:38:26.245Z,100712.69
2023-03-25T18:40:54.893Z,100706.34
2023-03-25T18:43:22.252Z,100715.09
2023-03-25T18:45:50.614Z,100709.63
2023-03-25T18:48:20.933Z,100708.50
2023-03-25T18:50:55.761Z,100699.28
2023-03-25T18:53:25.254Z,100706.41
2023-03-25T18:55:52.759Z,100706.13
2023-03-25T18:58:27.409Z,100704.34
2023-03-25T19:00:56.105Z,100710.84
2023-03-25T19:03:30.413Z,100715.03
2023-03-25T19:05:58.318Z,100721.66
2023-03-25T19:08:26.414Z,100724.06
2023-03-25T19:10:57.374Z,100718.44
2023-03-25T19:13:28.697Z,100722.81
2023-03-25T19:15:55.834Z,100726.03
2023-03-25T19:18:30.097Z,100728.31
2023-03-25T19:20:56.667Z,100733.00
2023-03-25T19:23:23.465Z,100746.25
2023-03-25T19:25:52.019Z,100738.03
2023-03-25T19:28:21.719Z,100730.75
2023-03-25T19:30:51.201Z,100733.81
2023-03-25T19:33:19.592Z,100734.16
2023-03-25T19:35:57.916Z,100727.03
2023-03-25T19:38:27.042Z,100730.78
2023-03-25T19:41:09.195Z,100734.31
2023-03-25T19:43:36.562Z,100734.78
2023-03-25T19:46:03.694Z,100733.66
2023-03-25T19:48:30.176Z,100736.41
2023-03-25T19:50:57.408Z,100727.53
2023-03-25T19:53:24.991Z,100720.13
2023-03-25T19:55:53.364Z,100729.78
2023-03-25T19:58:22.773Z,100728.97
2023-03-25T20:00:49.557Z,100725.91
2023-03-25T20:03:16.085Z,100725.44
2023-03-25T20:05:42.879Z,100726.72
2023-03-25T20:08:09.482Z,100717.34
2023-03-25T20:10:38.755Z,100720.22
2023-03-25T20:13:05.635Z,100719.44
2023-03-25T20:15:32.720Z,100714.28
2023-03-25T20:17:59.618Z,100713.97
2023-03-25T20:20:26.311Z,100707.00
2023-03-25T20:22:52.848Z,100713.31
2023-03-25T20:25:19.404Z,100714.75
2023-03-25T20:27:46.312Z,100716.53
2023-03-25T20:30:16.427Z,100712.34
2023-03-25T20:32:45.018Z,100714.59
2023-03-25T20:35:14.537Z,100712.84
2023-03-25T20:37:42.552Z,100701.84
2023-03-25T20:40:11.998Z,100707.84
2023-03-25T20:42:43.366Z,100713.16
2023-03-25T20:45:12.017Z,100719.75
2023-03-25T20:47:38.574Z,100714.91
2023-03-25T20:50:06.481Z,100715.72
2023-03-25T20:52:34.183Z,100722.47
2023-03-25T20:55:00.958Z,100729.44
2023-03-25T20:57:27.805Z,100731.22
2023-03-25T20:59:54.271Z,100738.66
2023-03-25T21:02:21.490Z,100738.97
2023-03-25T21:04:48.502Z,100735.88
2023-03-25T21:07:19.032Z,100737.50
2023-03-25T21:09:47.319Z,100740.56
2023-03-25T21:12:13.860Z,100744.91
2023-03-25T21:14:40.731Z,100744.59
2023-03-25T21:17:07.203Z,100745.69
2023-03-25T21:19:33.644Z,100752.16
2023-03-25T21:22:00.052Z,100758.25
2023-03-25T21:24:27.015Z,100760.19
2023-03-25T21:26:53.509Z,100759.22
2023-03-25T21:29:20.948Z,100778.25
2023-03-25T21:31:47.711Z,100771.47
2023-03-25T21:34:15.703Z,100777.28
2023-03-25T21:36:43.312Z,100780.00
2023-03-25T21:39:10.306Z,100779.38
2023-03-25T21:41:37.503Z,100788.91
2023-03-25T21:44:05.357Z,100789.84
2023-03-25T21:46:33.427Z,100792.13
2023-03-25T21:49:01.288Z,100787.59
2023-03-25T21:51:30.708Z,100791.50
2023-03-25T21:53:58.555Z,100791.84
2023-03-25T21:56:27.877Z,100797.63
2023-03-25T21:58:54.313Z,100783.13
2023-03-25T22:01:28.263Z,100792.78
2023-03-25T22:03:59.887Z,100795.38
2023-03-25T22:06:29.468Z,100797.94
2023-03-25T22:08:58.981Z,100800.38
2023-03-25T22:11:31.150Z,100803.63
2023-03-25T22:13:58.247Z,100804.44
2023-03-25T22:16:25.804Z,100804.44
2023-03-25T22:18:53.411Z,100812.03
2023-03-25T22:21:21.600Z,100805.06
2023-03-25T22:23:49.649Z,100812.81
2023-03-25T22:26:17.422Z,100817.03
2023-03-25T22:28:45.169Z,100825.56
2023-03-25T22:31:26.038Z,100819.59
2023-03-25T22:33:55.045Z,100826.88
2023-03-25T22:36:21.514Z,100829.00
2023-03-25T22:38:51.352Z,100831.44
2023-03-25T22:41:18.627Z,100831.91
2023-03-25T22:43:46.228Z,100834.34
2023-03-25T22:46:13.528Z,100836.63
2023-03-25T22:48:40.530Z,100837.25
2023-03-25T22:51:09.133Z,100824.19
2023-03-25T22:53:35.901Z,100830.00
2023-03-25T22:56:02.596Z,100829.06
2023-03-25T22:58:30.920Z,100830.66
2023-03-25T23:00:59.991Z,100838.22
2023-03-25T23:03:27.734Z,100820.00
2023-03-25T23:05:57.661Z,100838.56
2023-03-25T23:08:30.176Z,100830.03
2023-03-25T23:11:03.107Z,100827.91
2023-03-25T23:13:30.802Z,100833.75
2023-03-25T23:16:03.028Z,100834.56
2023-03-25T23:18:30.257Z,100836.34
2023-03-25T23:20:59.292Z,100846.69
2023-03-25T23:23:26.637Z,100838.09
2023-03-25T23:26:14.653Z,100844.88
2023-03-25T23:28:41.338Z,100846.53
2023-03-25T23:31:28.965Z,100847.47
2023-03-25T23:33:57.753Z,100843.09
2023-03-25T23:36:26.041Z,100835.50
2023-03-25T23:38:53.557Z,100837.13
2023-03-25T23:41:25.769Z,100827.59
2023-03-25T23:43:54.479Z,100824.38
2023-03-25T23:46:22.366Z,100826.97
2023-03-25T23:48:49.168Z,100824.53
2023-03-25T23:51:20.052Z,100826.16
2023-03-25T23:53:48.081Z,100832.28
2023-03-25T23:56:16.385Z,100831.50
2023-03-25T23:58:43.255Z,100828.06
